sensor_id;sensor_type;location;lat;lon;timestamp;temperature;humidity
15152;DHT22;7676;50.900;6.234;2023-04-01T00:09:04;10.50;99.90
15152;DHT22;7676;50.900;6.234;2023-04-01T00:24:07;10.50;99.90
15152;DHT22;7676;50.900;6.234;2023-04-01T00:39:09;10.30;99.90
15152;DHT22;7676;50.900;6.234;2023-04-01T00:54:13;10.50;99.90
15152;DHT22;7676;50.900;6.234;2023-04-01T01:40:08;10.30;99.90
15152;DHT22;7676;50.900;6.234;2023-04-01T02:10:34;9.80;99.90
15152;DHT22;7676;50.900;6.234;2023-04-01T02:25:38;10.10;99.90
15152;DHT22;7676;50.900;6.234;2023-04-01T02:40:47;10.40;99.90
15152;DHT22;7676;50.900;6.234;2023-04-01T02:55:50;10.20;99.90
15152;DHT22;7676;50.900;6.234;2023-04-01T03:11:01;10.30;99.90
15152;DHT22;7676;50.900;6.234;2023-04-01T03:26:54;10.40;99.90
15152;DHT22;7676;50.900;6.234;2023-04-01T03:41:57;10.30;99.90
15152;DHT22;7676;50.900;6.234;2023-04-01T03:56:59;10.30;99.90
15152;DHT22;7676;50.900;6.234;2023-04-01T04:12:02;10.20;99.90
15152;DHT22;7676;50.900;6.234;2023-04-01T04:27:06;10.20;99.90
15152;DHT22;7676;50.900;6.234;2023-04-01T04:42:11;10.40;99.90
15152;DHT22;7676;50.900;6.234;2023-04-01T04:57:15;10.20;99.90
15152;DHT22;7676;50.900;6.234;2023-04-01T05:12:25;10.20;99.90
15152;DHT22;7676;50.900;6.234;2023-04-01T05:27:34;10.10;99.90
15152;DHT22;7676;50.900;6.234;2023-04-01T05:42:37;10.10;99.90
15152;DHT22;7676;50.900;6.234;2023-04-01T05:57:40;10.00;99.90
15152;DHT22;7676;50.900;6.234;2023-04-01T06:13:11;9.90;99.90
15152;DHT22;7676;50.900;6.234;2023-04-01T06:43:52;9.80;99.90
15152;DHT22;7676;50.900;6.234;2023-04-01T06:59:25;9.90;99.90
15152;DHT22;7676;50.900;6.234;2023-04-01T07:14:37;10.10;99.90
15152;DHT22;7676;50.900;6.234;2023-04-01T07:29:42;10.10;99.90
15152;DHT22;7676;50.900;6.234;2023-04-01T08:00:27;10.10;99.90
15152;DHT22;7676;50.900;6.234;2023-04-01T08:15:49;10.10;99.90
15152;DHT22;7676;50.900;6.234;2023-04-01T08:31:39;10.20;99.90
15152;DHT22;7676;50.900;6.234;2023-04-01T09:01:57;10.20;99.90
15152;DHT22;7676;50.900;6.234;2023-04-01T09:33:07;10.30;99.90
15152;DHT22;7676;50.900;6.234;2023-04-01T10:19:49;10.90;99.90
15152;DHT22;7676;50.900;6.234;2023-04-01T11:52:07;11.20;99.90
15152;DHT22;7676;50.900;6.234;2023-04-01T12:07:27;11.20;99.90
15152;DHT22;7676;50.900;6.234;2023-04-01T12:22:49;11.20;99.90
15152;DHT22;7676;50.900;6.234;2023-04-01T12:38:03;11.50;99.90
15152;DHT22;7676;50.900;6.234;2023-04-01T13:09:11;11.30;99.90
15152;DHT22;7676;50.900;6.234;2023-04-01T13:24:45;11.20;99.90
15152;DHT22;7676;50.900;6.234;2023-04-01T13:40:26;11.00;99.90
15152;DHT22;7676;50.900;6.234;2023-04-01T14:57:28;11.50;99.90
15152;DHT22;7676;50.900;6.234;2023-04-01T15:12:38;11.40;99.90
15152;DHT22;7676;50.900;6.234;2023-04-01T15:43:32;11.30;99.90
15152;DHT22;7676;50.900;6.234;2023-04-01T16:14:04;11.10;99.90
15152;DHT22;7676;50.900;6.234;2023-04-01T16:29:19;11.90;99.90
15152;DHT22;7676;50.900;6.234;2023-04-01T16:44:26;11.00;99.90
15152;DHT22;7676;50.900;6.234;2023-04-01T16:59:36;11.00;99.90
15152;DHT22;7676;50.900;6.234;2023-04-01T17:45:30;10.50;99.90
15152;DHT22;7676;50.900;6.234;2023-04-01T18:31:45;10.30;99.90
15152;DHT22;7676;50.900;6.234;2023-04-01T18:47:13;10.30;99.90
15152;DHT22;7676;50.900;6.234;2023-04-01T19:02:30;10.30;99.90
15152;DHT22;7676;50.900;6.234;2023-04-01T20:04:11;10.70;99.90
15152;DHT22;7676;50.900;6.234;2023-04-01T20:19:35;10.80;99.90
15152;DHT22;7676;50.900;6.234;2023-04-01T20:35:00;10.80;99.90
15152;DHT22;7676;50.900;6.234;2023-04-01T21:05:37;10.80;99.90
15152;DHT22;7676;50.900;6.234;2023-04-01T21:21:09;11.00;99.90
15152;DHT22;7676;50.900;6.234;2023-04-01T21:36:39;11.00;99.90
15152;DHT22;7676;50.900;6.234;2023-04-01T22:06:53;9.70;99.90
15152;DHT22;7676;50.900;6.234;2023-04-01T22:22:27;9.50;99.90
15152;DHT22;7676;50.900;6.234;2023-04-01T22:37:46;9.10;99.90
15152;DHT22;7676;50.900;6.234;2023-04-01T22:53:02;8.90;99.90
15152;DHT22;7676;50.900;6.234;2023-04-01T23:39:34;8.40;99.90
